Time;durP1;ratioP1;P1;durP2;ratioP2;P2;SDS_P1;SDS_P2;PMS_P1;PMS_P2;Temp;Humidity;BMP_temperature;BMP_pressure;BME280_temperature;BME280_humidity;BME280_pressure;Samples;Min_cycle;Max_cycle;Signal;HPM_P1;HPM_P2
2021/07/05 00:00:07;;;;;;;26.93;24.40;;;;;;;-144.27;100.00;91380.88;2087787;28;20230;-77
2021/07/05 00:01:10;;;;;;;27.30;24.63;;;;;;;-123.45;100.00;91357.91;2087257;28;20315;-77
2021/07/05 00:02:12;;;;;;;26.87;24.27;;;;;;;-144.27;100.00;91426.84;2087755;28;20280;-77
2021/07/05 00:03:12;;;;;;;26.55;24.05;;;;;;;-133.86;100.00;91380.88;2087642;28;20226;-77
2021/07/05 00:04:14;;;;;;;28.20;25.30;;;;;;;;;;2079717;28;20250;-76
2021/07/05 00:05:16;;;;;;;26.73;24.30;;;;;;;-144.27;100.00;91426.84;2079697;28;20220;-77
2021/07/05 00:06:18;;;;;;;29.08;26.10;;;;;;;-102.63;100.00;91340.69;2087881;28;20234;-77
2021/07/05 00:07:20;;;;;;;27.45;24.88;;;;;;;43.25;100.00;91346.41;2087594;28;20328;-78
2021/07/05 00:08:21;;;;;;;28.27;25.38;;;;;;;;;;2087623;28;20230;-77
2021/07/05 00:09:22;;;;;;;28.52;25.90;;;;;;;-144.27;100.00;91380.88;2088028;28;20561;-77
2021/07/05 00:10:26;;;;;;;28.97;26.27;;;;;;;22.43;100.00;69759.91;2088399;28;20229;-77
2021/07/05 00:11:27;;;;;;;27.02;24.50;;;;;;;-133.86;100.00;91380.88;2088304;28;20230;-77
2021/07/05 00:12:28;;;;;;;28.97;25.97;;;;;;;-144.27;100.00;91380.88;2087776;28;20310;-77
2021/07/05 00:13:29;;;;;;;27.75;25.10;;;;;;;-123.45;100.00;91380.88;2079776;28;20226;-77
2021/07/05 00:14:31;;;;;;;27.37;24.87;;;;;;;-144.27;100.00;91380.88;2079398;28;20310;-77
2021/07/05 00:15:34;;;;;;;27.58;24.80;;;;;;;-133.86;100.00;91426.84;2079352;28;20223;-77
2021/07/05 00:16:37;;;;;;;28.00;25.17;;;;;;;-144.27;100.00;91380.88;2087737;28;20301;-76
2021/07/05 00:17:38;;;;;;;26.50;23.83;;;;;;;-133.86;100.00;91426.84;2087824;28;20226;-78
2021/07/05 00:18:39;;;;;;;26.30;23.87;;;;;;;-144.27;100.00;70965.22;2087560;28;20453;-77
2021/07/05 00:19:40;;;;;;;27.45;24.95;;;;;;;;;;2087622;28;20758;-76
2021/07/05 00:20:45;;;;;;;26.70;24.17;;;;;;;-133.86;100.00;91426.84;2087635;28;20662;-77
2021/07/05 00:21:46;;;;;;;27.27;24.63;;;;;;;-144.27;100.00;91380.88;2087711;28;20310;-77
2021/07/05 00:22:48;;;;;;;26.40;24.03;;;;;;;-144.27;100.00;91380.88;2088212;28;20226;-78
2021/07/05 00:23:50;;;;;;;26.43;23.83;;;;;;;;;;2088303;28;20449;-77
2021/07/05 00:24:50;;;;;;;26.27;23.77;;;;;;;;;;2087730;28;20838;-76
2021/07/05 00:25:52;;;;;;;26.33;23.97;;;;;;;-133.86;100.00;91426.84;2087746;28;20227;-77
2021/07/05 00:26:53;;;;;;;26.20;23.77;;;;;;;-144.27;100.00;91380.88;2080725;28;20318;-78
2021/07/05 00:27:55;;;;;;;27.27;24.03;;;;;;;-133.86;100.00;91380.88;2071260;28;20466;-78
2021/07/05 00:28:55;;;;;;;26.43;23.83;;;;;;;-144.27;100.00;69797.25;2071290;28;20678;-77
2021/07/05 00:29:57;;;;;;;27.27;24.77;;;;;;;-144.27;100.00;91380.88;2079539;28;22456;-77
2021/07/05 00:30:59;;;;;;;28.02;25.33;;;;;;;189.37;100.00;91335.66;2079928;28;20705;-77
2021/07/05 00:32:00;;;;;;;32.77;26.10;;;;;;;-144.27;100.00;91426.84;2080084;28;20219;-77
2021/07/05 00:33:02;;;;;;;27.67;25.07;;;;;;;-144.27;100.00;91426.84;2079327;28;20458;-77
2021/07/05 00:34:03;;;;;;;28.13;25.45;;;;;;;189.37;100.00;91335.66;2079316;28;20220;-77
2021/07/05 00:35:05;;;;;;;28.73;26.03;;;;;;;-123.45;100.00;91357.91;2079502;28;20302;-77
2021/07/05 00:36:08;;;;;;;28.60;26.08;;;;;;;-144.27;100.00;91518.75;2080199;28;20223;-77
2021/07/05 00:37:09;;;;;;;28.38;25.55;;;;;;;-144.27;100.00;91426.84;2086219;28;20317;-78
2021/07/05 00:38:10;;;;;;;28.08;25.10;;;;;;;-144.27;100.00;69834.63;2088327;28;20238;-77
2021/07/05 00:39:12;;;;;;;28.33;25.83;;;;;;;22.40;100.00;69759.91;2088787;28;20250;-77
2021/07/05 00:40:15;;;;;;;26.35;23.90;;;;;;;-144.27;100.00;91380.88;2081057;28;20231;-77
2021/07/05 00:41:16;;;;;;;28.10;25.40;;;;;;;-144.27;100.00;91380.88;2081254;28;20233;-77
2021/07/05 00:42:17;;;;;;;28.38;25.48;;;;;;;;;;2089037;28;20283;-77
2021/07/05 00:43:19;;;;;;;28.63;25.83;;;;;;;-60.98;100.00;91340.69;2089788;28;20265;-77
2021/07/05 00:44:19;;;;;;;28.92;25.88;;;;;;;;;;2089793;28;20222;-77
2021/07/05 00:45:21;;;;;;;27.53;24.67;;;;;;;22.72;100.00;57196.03;2088998;28;20284;-77
2021/07/05 00:46:22;;;;;;;28.10;25.25;;;;;;;-123.45;100.00;91357.91;2080280;28;20223;-78
2021/07/05 00:47:23;;;;;;;33.27;26.07;;;;;;;;;;2080550;28;20737;-78
2021/07/05 00:48:24;;;;;;;27.58;24.88;;;;;;;-123.45;100.00;91357.91;2080783;28;20702;-77
2021/07/05 00:49:26;;;;;;;28.97;26.27;;;;;;;;;;2089087;28;20580;-77
2021/07/05 00:50:27;;;;;;;28.38;25.90;;;;;;;-102.63;100.00;91340.69;2089012;28;21780;-77
2021/07/05 00:51:30;;;;;;;28.75;25.85;;;;;;;;;;2088949;28;20720;-78
2021/07/05 00:52:32;;;;;;;27.65;24.70;;;;;;;22.40;100.00;69759.91;2088969;28;20218;-77
2021/07/05 00:53:34;;;;;;;27.05;24.52;;;;;;;-144.27;100.00;91380.88;2088963;28;20227;-77
2021/07/05 00:54:35;;;;;;;28.45;25.83;;;;;;;-123.45;100.00;91357.91;2089641;28;20572;-77
2021/07/05 00:55:37;;;;;;;26.67;24.27;;;;;;;-133.86;100.00;91426.84;2089687;28;20267;-77
2021/07/05 00:56:38;;;;;;;26.08;23.70;;;;;;;-123.45;100.00;91380.88;2082081;28;20243;-77
2021/07/05 00:57:40;;;;;;;27.43;24.20;;;;;;;-102.63;100.00;91346.41;2080784;28;20227;-77
2021/07/05 00:58:41;;;;;;;27.80;25.30;;;;;;;23.05;100.00;70359.91;2081470;28;20277;-77
2021/07/05 00:59:43;;;;;;;28.23;25.83;;;;;;;-102.63;100.00;91357.91;2081413;28;20285;-77
2021/07/05 01:00:44;;;;;;;28.63;25.92;;;;;;;;;;2081314;28;20230;-77
2021/07/05 01:01:45;;;;;;;27.92;25.15;;;;;;;-144.27;100.00;54464.16;2080531;28;20242;-76
2021/07/05 01:02:47;;;;;;;28.13;25.53;;;;;;;;;;2080396;28;20246;-76
2021/07/05 01:03:48;;;;;;;32.33;26.48;;;;;;;-144.27;100.00;91426.84;2080704;28;20265;-77
2021/07/05 01:04:51;;;;;;;29.13;26.37;;;;;;;-144.27;100.00;91426.84;2080201;28;20224;-77
2021/07/05 01:05:52;;;;;;;29.17;26.30;;;;;;;-102.63;100.00;91346.41;2080274;28;20231;-77
2021/07/05 01:06:55;;;;;;;28.73;25.90;;;;;;;-102.63;100.00;91346.41;2080408;28;20289;-76
2021/07/05 01:07:56;;;;;;;27.95;25.45;;;;;;;-144.27;100.00;107915.94;2080459;28;20231;-77
2021/07/05 01:08:58;;;;;;;29.25;26.40;;;;;;;-102.63;100.00;91340.69;2080785;28;20665;-77
2021/07/05 01:09:59;;;;;;;28.20;25.40;;;;;;;-123.45;100.00;91380.88;2081447;28;20299;-77
2021/07/05 01:11:01;;;;;;;28.17;25.27;;;;;;;189.37;64.48;91335.66;2081179;28;20247;-76
2021/07/05 01:12:01;;;;;;;26.70;24.20;;;;;;;;;;2080653;28;20219;-76
2021/07/05 01:13:04;;;;;;;27.73;25.17;;;;;;;189.37;69.75;91335.66;2080577;28;20219;-76
2021/07/05 01:14:05;;;;;;;27.13;24.52;;;;;;;22.40;100.00;69759.91;2080452;28;20227;-76
2021/07/05 01:15:07;;;;;;;25.97;23.63;;;;;;;-123.45;100.00;91380.88;2080539;28;20771;-77
2021/07/05 01:16:09;;;;;;;28.10;25.23;;;;;;;-144.27;100.00;91380.88;2087206;28;20266;-77
2021/07/05 01:17:10;;;;;;;27.13;24.55;;;;;;;-123.45;100.00;91357.91;2089541;28;20739;-77
2021/07/05 01:18:12;;;;;;;26.40;24.00;;;;;;;;;;2088685;28;20306;-77
2021/07/05 01:19:12;;;;;;;26.15;23.63;;;;;;;-144.27;100.00;91426.84;2080607;28;20230;-76
2021/07/05 01:20:16;;;;;;;26.87;24.37;;;;;;;-123.45;100.00;91357.91;2088790;28;20301;-76
2021/07/05 01:21:18;;;;;;;28.50;25.55;;;;;;;-144.27;100.00;91380.88;2089299;28;20701;-77
2021/07/05 01:22:20;;;;;;;28.55;25.88;;;;;;;;;;2089393;28;20700;-77
2021/07/05 01:23:21;;;;;;;27.85;25.25;;;;;;;-144.27;100.00;91380.88;2088605;28;20211;-76
2021/07/05 01:24:22;;;;;;;31.00;26.60;;;;;;;-144.27;100.00;91380.88;2088207;28;20236;-77
2021/07/05 01:25:25;;;;;;;30.55;26.48;;;;;;;22.56;100.00;122675.81;2088616;28;20260;-76
2021/07/05 01:26:26;;;;;;;30.63;27.50;;;;;;;-144.27;100.00;91380.88;2080635;28;20235;-77
2021/07/05 01:27:27;;;;;;;33.70;26.63;;;;;;;;;;2088802;28;20235;-78
2021/07/05 01:28:29;;;;;;;29.70;26.70;;;;;;;189.37;64.61;91335.66;2088590;28;20249;-77
2021/07/05 01:29:30;;;;;;;30.15;26.88;;;;;;;22.40;100.00;69759.91;2088594;28;20222;-77
2021/07/05 01:30:31;;;;;;;28.93;26.07;;;;;;;;;;2089347;28;20241;-76
2021/07/05 01:31:34;;;;;;;29.30;26.55;;;;;;;-60.98;100.00;91340.69;2089566;28;20226;-77
2021/07/05 01:32:36;;;;;;;28.48;25.77;;;;;;;-144.27;100.00;91380.88;2089056;28;20704;-77
2021/07/05 01:33:38;;;;;;;27.30;24.45;;;;;;;22.56;100.00;69759.91;2088284;28;20249;-78
2021/07/05 01:34:39;;;;;;;30.02;26.92;;;;;;;-144.27;100.00;91426.84;2088510;28;20628;-77
2021/07/05 01:35:41;;;;;;;28.23;25.70;;;;;;;22.48;100.00;91112.81;2089352;28;20292;-77
2021/07/05 01:36:43;;;;;;;27.60;25.10;;;;;;;-123.45;100.00;91357.91;2088496;28;21364;-78
2021/07/05 01:37:45;;;;;;;27.92;25.52;;;;;;;-144.27;100.00;116343.63;2088620;28;20445;-78
2021/07/05 01:38:46;;;;;;;27.65;25.20;;;;;;;;;;2089431;28;20226;-77
2021/07/05 01:39:47;;;;;;;29.90;26.70;;;;;;;;;;2089463;28;20740;-77
2021/07/05 01:40:52;;;;;;;28.92;26.27;;;;;;;;;;2089431;28;20222;-77
2021/07/05 01:41:53;;;;;;;29.05;26.45;;;;;;;;;;2088966;28;20634;-77
2021/07/05 01:42:57;;;;;;;28.20;25.60;;;;;;;189.37;100.00;91335.66;2089162;28;20227;-77
2021/07/05 01:43:58;;;;;;;27.48;24.85;;;;;;;;;;2088480;28;20759;-77
2021/07/05 01:44:59;;;;;;;27.77;25.07;;;;;;;-123.45;100.00;91426.84;2088392;28;20215;-77
2021/07/05 01:46:01;;;;;;;27.90;25.33;;;;;;;22.40;100.00;69759.91;2080472;28;20281;-77
2021/07/05 01:47:03;;;;;;;29.88;26.92;;;;;;;-102.63;100.00;91346.41;2088650;28;20214;-77
2021/07/05 01:48:05;;;;;;;28.85;26.10;;;;;;;-144.27;100.00;91518.75;2088738;28;20297;-77
2021/07/05 01:49:06;;;;;;;27.08;24.58;;;;;;;-133.86;100.00;91380.88;2080356;28;20577;-77
2021/07/05 01:50:08;;;;;;;30.27;27.23;;;;;;;-144.27;100.00;91380.88;2087725;28;20650;-77
2021/07/05 01:51:09;;;;;;;28.13;25.55;;;;;;;22.39;100.00;91337.81;2088277;28;20318;-77
2021/07/05 01:52:13;;;;;;;29.73;26.63;;;;;;;-144.27;100.00;91380.88;2088494;28;20234;-77
2021/07/05 01:53:14;;;;;;;29.80;26.90;;;;;;;23.70;100.00;69759.91;2088280;28;20689;-77
2021/07/05 01:54:16;;;;;;;29.07;26.23;;;;;;;43.25;87.06;91357.91;2088583;28;20413;-77
2021/07/05 01:55:17;;;;;;;26.02;23.58;;;;;;;-123.45;100.00;91380.88;2088397;28;20230;-77
2021/07/05 01:56:19;;;;;;;30.38;27.10;;;;;;;-144.27;100.00;91426.84;2080252;28;20318;-78
2021/07/05 01:57:27;;;;;;;31.05;27.52;;;;;;;-144.27;100.00;69909.41;2088506;28;20226;-77
2021/07/05 01:58:28;;;;;;;28.65;25.70;;;;;;;23.70;61.97;94163.44;2088935;28;20219;-76
2021/07/05 01:59:29;;;;;;;28.13;25.55;;;;;;;;;;2089261;28;20226;-77
2021/07/05 02:00:32;;;;;;;29.13;26.33;;;;;;;-144.27;100.00;91426.84;2089058;28;20219;-76
2021/07/05 02:01:33;;;;;;;29.35;26.42;;;;;;;32.82;100.00;91380.88;2089274;28;20574;-77
2021/07/05 02:02:35;;;;;;;31.50;28.23;;;;;;;-123.45;100.00;91380.88;2089255;28;20218;-77
2021/07/05 02:03:36;;;;;;;31.70;28.60;;;;;;;-123.45;100.00;91380.88;2088393;28;20746;-78
2021/07/05 02:04:37;;;;;;;30.70;27.70;;;;;;;-123.45;100.00;91357.91;2080297;28;20576;-76
2021/07/05 02:05:39;;;;;;;29.73;26.77;;;;;;;-144.27;100.00;91380.88;2079207;28;20227;-77
2021/07/05 02:06:40;;;;;;;29.25;26.48;;;;;;;-144.27;100.00;91380.88;2088360;28;20223;-77
2021/07/05 02:07:43;;;;;;;29.77;26.73;;;;;;;189.37;62.41;91335.66;2088884;28;20231;-77
2021/07/05 02:08:45;;;;;;;30.35;27.35;;;;;;;-102.63;100.00;91357.91;2088248;28;20272;-77
2021/07/05 02:09:46;;;;;;;29.23;26.48;;;;;;;;;;2088369;28;20248;-77
2021/07/05 02:10:47;;;;;;;29.23;26.37;;;;;;;;;;2088499;28;20242;-77
2021/07/05 02:11:48;;;;;;;30.92;27.45;;;;;;;;;;2080388;28;20246;-77
2021/07/05 02:12:50;;;;;;;30.07;26.90;;;;;;;;;;2088501;28;20219;-76
2021/07/05 02:13:51;;;;;;;32.30;27.23;;;;;;;-102.63;100.00;91357.91;2089259;28;20218;-77
2021/07/05 02:14:53;;;;;;;31.23;26.30;;;;;;;-123.45;100.00;91357.91;2088699;28;20230;-78
2021/07/05 02:15:59;;;;;;;29.08;26.35;;;;;;;-144.27;100.00;91380.88;2089088;28;20230;-76
2021/07/05 02:17:00;;;;;;;29.40;26.48;;;;;;;-60.98;100.00;91340.69;2088351;28;20280;-77
2021/07/05 02:18:02;;;;;;;31.57;27.07;;;;;;;;;;2079967;28;20223;-77
2021/07/05 02:19:04;;;;;;;30.77;27.55;;;;;;;-60.98;100.00;91340.69;2080078;28;20215;-77
2021/07/05 02:20:07;;;;;;;30.25;27.25;;;;;;;-144.27;100.00;91380.88;2080257;28;20223;-76
2021/07/05 02:21:09;;;;;;;31.17;27.75;;;;;;;22.56;100.00;-8242.56;2088077;28;20284;-77
2021/07/05 02:22:11;;;;;;;30.77;27.65;;;;;;;189.37;69.75;91335.66;2089024;28;20235;-77
2021/07/05 02:23:16;;;;;;;32.15;27.40;;;;;;;32.82;100.00;91380.88;2088973;28;20241;-77
2021/07/05 02:24:18;;;;;;;30.85;27.95;;;;;;;-133.86;100.00;91426.84;2089045;28;20226;-77
2021/07/05 02:25:20;;;;;;;29.35;26.30;;;;;;;;;;2088169;28;20222;-77
2021/07/05 02:26:21;;;;;;;31.48;28.42;;;;;;;22.56;100.00;120563.97;2080053;28;20216;-76
2021/07/05 02:27:22;;;;;;;29.88;26.77;;;;;;;;;;2079600;28;20223;-77
2021/07/05 02:28:28;;;;;;;30.40;27.30;;;;;;;-123.45;100.00;91380.88;2088165;28;20215;-77
2021/07/05 02:29:28;;;;;;;29.83;27.08;;;;;;;;;;2087991;28;20260;-77
2021/07/05 02:30:31;;;;;;;29.03;26.30;;;;;;;22.56;100.00;57196.03;2088244;28;20249;-77
2021/07/05 02:31:31;;;;;;;29.70;26.65;;;;;;;-144.27;100.00;69797.25;2088441;28;20229;-77
2021/07/05 02:32:33;;;;;;;29.50;26.43;;;;;;;22.39;100.00;91337.81;2080116;28;20717;-76
2021/07/05 02:33:34;;;;;;;29.92;26.88;;;;;;;-102.63;100.00;91340.69;2079928;28;20219;-76
2021/07/05 02:34:36;;;;;;;29.52;26.63;;;;;;;64.11;100.00;91340.69;2079916;28;20222;-77
2021/07/05 02:35:37;;;;;;;29.55;26.63;;;;;;;;;;2087875;28;20230;-77
2021/07/05 02:36:38;;;;;;;28.90;25.80;;;;;;;22.39;60.85;91336.38;2087889;28;20264;-77
2021/07/05 02:37:41;;;;;;;28.42;25.80;;;;;;;-144.27;100.00;91426.84;2079852;28;20231;-77
2021/07/05 02:38:44;;;;;;;29.52;26.73;;;;;;;-144.27;100.00;69834.63;2088283;28;20234;-76
2021/07/05 02:39:45;;;;;;;27.52;24.95;;;;;;;-144.27;100.00;70059.25;2088147;28;20219;-77
2021/07/05 02:40:48;;;;;;;29.27;26.23;;;;;;;-102.63;100.00;91340.69;2088189;28;20219;-77
2021/07/05 02:41:50;;;;;;;28.92;25.92;;;;;;;-144.27;100.00;91518.75;2088719;28;20218;-77
2021/07/05 02:42:52;;;;;;;27.92;25.33;;;;;;;189.37;61.92;91335.66;2088056;28;20245;-77
2021/07/05 02:43:52;;;;;;;28.05;25.13;;;;;;;-102.63;100.00;91340.69;2087989;28;20234;-76
2021/07/05 02:44:54;;;;;;;28.30;25.40;;;;;;;-123.45;100.00;91357.91;2088213;28;20249;-76
2021/07/05 02:45:56;;;;;;;28.38;25.45;;;;;;;;;;2088142;28;20234;-77
2021/07/05 02:46:58;;;;;;;26.83;24.42;;;;;;;-144.27;100.00;91426.84;2079820;28;20223;-76
2021/07/05 02:48:00;;;;;;;28.27;25.48;;;;;;;-123.45;100.00;91380.88;2087920;28;20219;-76
2021/07/05 02:49:02;;;;;;;28.20;25.45;;;;;;;;;;2088000;28;20227;-76
2021/07/05 02:50:04;;;;;;;29.63;26.10;;;;;;;189.37;60.16;91335.66;2087956;28;20215;-76
2021/07/05 02:51:06;;;;;;;27.67;25.17;;;;;;;-123.45;100.00;91380.88;2079991;28;20589;-76
2021/07/05 02:52:07;;;;;;;29.55;26.65;;;;;;;-102.63;100.00;91346.41;2073500;28;20308;-77
2021/07/05 02:53:09;;;;;;;28.47;25.43;;;;;;;;;;2081772;28;20219;-76
2021/07/05 02:54:11;;;;;;;30.45;27.20;;;;;;;-144.27;100.00;91380.88;2080575;28;20228;-76
2021/07/05 02:55:14;;;;;;;28.92;25.92;;;;;;;-123.45;100.00;91380.88;2080684;28;20243;-77
2021/07/05 02:56:14;;;;;;;29.40;26.50;;;;;;;;;;2079362;28;20631;-77
2021/07/05 02:57:29;;;;;;;28.47;25.60;;;;;;;;;;2079585;28;20237;-77
2021/07/05 02:58:31;;;;;;;28.70;25.80;;;;;;;;;;2087706;28;20225;-77
2021/07/05 02:59:32;;;;;;;30.58;26.48;;;;;;;-102.63;0.00;91346.41;2088097;28;20236;-77
2021/07/05 03:00:34;;;;;;;29.00;25.90;;;;;;;;;;2088137;28;20234;-77
2021/07/05 03:01:35;;;;;;;29.33;26.13;;;;;;;-123.45;100.00;91357.91;2087297;28;20211;-77
2021/07/05 03:02:37;;;;;;;27.87;24.93;;;;;;;-102.63;100.00;91346.41;2087803;28;20305;-77
2021/07/05 03:03:39;;;;;;;28.45;25.48;;;;;;;22.39;100.00;91337.81;2087528;28;20364;-77
2021/07/05 03:04:39;;;;;;;29.42;26.42;;;;;;;-123.45;100.00;91380.88;2088126;28;20218;-76
2021/07/05 03:05:42;;;;;;;29.13;26.43;;;;;;;-123.45;100.00;91380.88;2087797;28;20222;-77
2021/07/05 03:06:42;;;;;;;30.02;26.95;;;;;;;22.48;100.00;116343.63;2087884;28;20708;-77
2021/07/05 03:07:44;;;;;;;32.73;27.63;;;;;;;;;;2087891;28;20560;-77
2021/07/05 03:08:44;;;;;;;34.35;28.00;;;;;;;22.41;100.00;69759.91;2087733;28;20332;-76
2021/07/05 03:09:48;;;;;;;31.77;26.10;;;;;;;-144.27;100.00;91380.88;2087895;28;20214;-76
2021/07/05 03:10:48;;;;;;;30.67;27.50;;;;;;;-144.27;100.00;69909.41;2087754;28;20284;-77
2021/07/05 03:11:50;;;;;;;30.23;27.03;;;;;;;22.56;100.00;124260.38;2088521;28;20214;-77
2021/07/05 03:12:51;;;;;;;30.10;26.25;;;;;;;;;;2088571;28;20218;-76
2021/07/05 03:13:52;;;;;;;31.20;26.53;;;;;;;;;;2088275;28;20230;-77
2021/07/05 03:14:53;;;;;;;32.15;27.25;;;;;;;-144.27;100.00;91380.88;2088692;28;20287;-76
2021/07/05 03:15:55;;;;;;;36.27;27.60;;;;;;;-102.63;100.00;91357.91;2088059;28;20265;-77
2021/07/05 03:16:56;;;;;;;35.28;28.02;;;;;;;;;;2079565;28;20235;-77
2021/07/05 03:17:58;;;;;;;31.13;26.63;;;;;;;-102.63;82.05;91346.41;2079043;28;20281;-77
2021/07/05 03:18:58;;;;;;;29.95;26.50;;;;;;;;;;2087927;28;20225;-76
2021/07/05 03:20:00;;;;;;;31.17;27.07;;;;;;;-60.98;100.00;91340.69;2088734;28;20226;-76
2021/07/05 03:21:02;;;;;;;30.13;27.02;;;;;;;43.25;100.00;91357.91;2087805;28;20223;-77
2021/07/05 03:22:03;;;;;;;29.08;25.95;;;;;;;-144.27;100.00;91380.88;2088010;28;20704;-76
2021/07/05 03:23:06;;;;;;;29.53;26.30;;;;;;;-123.45;100.00;91380.88;2088590;28;20564;-76
2021/07/05 03:24:07;;;;;;;28.98;26.17;;;;;;;22.56;100.00;124260.38;2088546;28;20709;-76
2021/07/05 03:25:11;;;;;;;30.35;27.10;;;;;;;;;;2081805;28;20227;-77
2021/07/05 03:26:13;;;;;;;33.17;26.42;;;;;;;-144.27;100.00;91380.88;2080333;28;20250;-77
2021/07/05 03:27:13;;;;;;;30.05;26.95;;;;;;;-133.86;100.00;91380.88;2080439;28;20219;-76
2021/07/05 03:28:17;;;;;;;29.33;26.33;;;;;;;-144.27;100.00;91380.88;2080401;28;20227;-77
2021/07/05 03:29:17;;;;;;;28.25;25.50;;;;;;;;;;2080473;28;20674;-76
2021/07/05 03:30:21;;;;;;;31.87;27.10;;;;;;;22.39;100.00;91337.81;2079584;28;20660;-76
2021/07/05 03:31:21;;;;;;;32.67;26.35;;;;;;;-144.27;100.00;69759.91;2085707;28;20275;-78
2021/07/05 03:32:23;;;;;;;29.37;26.13;;;;;;;-123.45;100.00;91380.88;2088438;28;20223;-77
2021/07/05 03:33:24;;;;;;;29.20;26.13;;;;;;;-133.86;100.00;91426.84;2087873;28;20233;-77
2021/07/05 03:34:26;;;;;;;28.90;25.80;;;;;;;-60.98;100.00;91337.81;2087937;28;20230;-77
2021/07/05 03:35:27;;;;;;;30.73;27.48;;;;;;;-123.45;100.00;91380.88;2088623;28;20227;-77
2021/07/05 03:36:28;;;;;;;30.38;26.73;;;;;;;;;;2087779;28;20218;-76
2021/07/05 03:37:29;;;;;;;32.17;26.58;;;;;;;-144.27;100.00;91380.88;2088022;28;20222;-77
2021/07/05 03:38:30;;;;;;;27.47;24.80;;;;;;;-144.27;100.00;91380.88;2087773;28;20272;-77
2021/07/05 03:39:31;;;;;;;32.67;27.00;;;;;;;-144.27;100.00;91380.88;2087946;28;20310;-76
2021/07/05 03:40:36;;;;;;;34.83;27.40;;;;;;;-144.27;100.00;91380.88;2087705;28;20214;-77
2021/07/05 03:41:36;;;;;;;30.50;25.90;;;;;;;23.05;100.00;69909.41;2073274;28;20231;-77
2021/07/05 03:42:38;;;;;;;29.63;26.47;;;;;;;22.40;100.00;69759.91;2081507;28;20258;-78
2021/07/05 03:43:41;;;;;;;33.10;27.10;;;;;;;22.43;100.00;69759.91;2080229;28;20222;-77
2021/07/05 03:44:41;;;;;;;31.75;26.75;;;;;;;-123.45;80.58;91380.88;2080354;28;20234;-77
2021/07/05 03:45:43;;;;;;;33.30;26.87;;;;;;;;;;2079393;28;20245;-76
2021/07/05 03:46:44;;;;;;;35.40;26.92;;;;;;;-60.98;100.00;91340.69;2079393;28;20220;-76
2021/07/05 03:47:46;;;;;;;32.13;25.90;;;;;;;;;;2071215;28;20251;-76
2021/07/05 03:48:46;;;;;;;30.67;26.02;;;;;;;-144.27;100.00;91380.88;2071386;28;20255;-76
2021/07/05 03:49:48;;;;;;;31.17;25.87;;;;;;;189.37;69.75;91335.66;2079160;28;20231;-76
2021/07/05 03:50:50;;;;;;;33.30;27.05;;;;;;;-133.86;100.00;91426.84;2071467;28;20224;-76
2021/07/05 03:51:50;;;;;;;35.80;26.98;;;;;;;-144.27;100.00;91380.88;2079555;28;20234;-77
2021/07/05 03:52:52;;;;;;;34.10;27.70;;;;;;;-133.86;100.00;91518.75;2079675;28;20227;-76
2021/07/05 03:53:53;;;;;;;30.40;27.15;;;;;;;43.25;100.00;91346.41;2086388;28;20226;-77
2021/07/05 03:54:55;;;;;;;32.30;26.97;;;;;;;-60.98;100.00;91346.41;2088590;28;20234;-76
2021/07/05 03:55:58;;;;;;;35.17;26.13;;;;;;;-144.27;100.00;91380.88;2087782;28;20226;-76
2021/07/05 03:56:59;;;;;;;30.70;27.38;;;;;;;23.70;100.00;69909.41;2079849;28;20223;-76
2021/07/05 03:58:01;;;;;;;36.50;27.80;;;;;;;-144.27;100.00;91426.84;2079413;28;20230;-77
2021/07/05 03:59:02;;;;;;;32.17;26.98;;;;;;;-144.27;100.00;91380.88;2087594;28;20222;-77
2021/07/05 04:00:07;;;;;;;30.43;27.17;;;;;;;-133.86;100.00;91518.75;2087698;28;20288;-77
2021/07/05 04:01:09;;;;;;;34.30;28.13;;;;;;;22.56;100.00;124260.38;2088187;28;20222;-77
2021/07/05 04:02:09;;;;;;;32.47;26.85;;;;;;;;;;2087328;28;20226;-77
2021/07/05 04:03:11;;;;;;;30.20;27.07;;;;;;;-133.86;100.00;91380.88;2079371;28;20219;-76
2021/07/05 04:04:12;;;;;;;34.28;27.17;;;;;;;-144.27;100.00;91380.88;2087630;28;20235;-76
2021/07/05 04:05:14;;;;;;;32.00;26.70;;;;;;;-123.45;100.00;91380.88;2088457;28;20311;-77
2021/07/05 04:06:15;;;;;;;30.95;27.23;;;;;;;25.00;100.00;70867.97;2087453;28;20222;-76
2021/07/05 04:07:17;;;;;;;30.27;26.67;;;;;;;-133.86;100.00;91518.75;2087382;28;20250;-77
2021/07/05 04:08:19;;;;;;;31.83;27.05;;;;;;;189.37;100.00;91335.66;2087523;28;20238;-77
2021/07/05 04:09:22;;;;;;;30.00;26.52;;;;;;;-144.27;100.00;91380.88;2087494;28;20310;-76
2021/07/05 04:10:23;;;;;;;29.08;25.98;;;;;;;-144.27;100.00;91426.84;2079028;28;20662;-77
2021/07/05 04:11:26;;;;;;;30.67;27.57;;;;;;;-144.27;100.00;69834.63;2087717;28;20652;-76
2021/07/05 04:12:27;;;;;;;32.47;26.83;;;;;;;-144.27;100.00;69834.63;2079765;28;20807;-76
2021/07/05 04:13:29;;;;;;;31.77;26.77;;;;;;;-144.27;100.00;91518.75;2089179;28;20571;-77
2021/07/05 04:14:30;;;;;;;31.40;26.45;;;;;;;-144.27;100.00;69834.63;2089234;28;20226;-77
2021/07/05 04:15:32;;;;;;;30.43;26.27;;;;;;;-144.27;100.00;91518.75;2089352;28;20285;-77
2021/07/05 04:16:33;;;;;;;31.33;26.85;;;;;;;-144.27;100.00;69834.63;2088954;28;20708;-76
2021/07/05 04:17:34;;;;;;;32.73;26.80;;;;;;;-144.27;100.00;91702.66;2089356;28;20609;-77
2021/07/05 04:18:35;;;;;;;35.92;26.48;;;;;;;-144.27;100.00;91518.75;2089272;28;20265;-77
2021/07/05 04:19:37;;;;;;;30.13;26.40;;;;;;;-144.27;100.00;91702.66;2081016;28;20254;-76
2021/07/05 04:20:37;;;;;;;33.47;27.05;;;;;;;-144.27;100.00;91518.75;2088800;28;20230;-77
2021/07/05 04:21:39;;;;;;;36.33;27.63;;;;;;;-144.27;100.00;91702.66;2089171;28;20250;-77
2021/07/05 04:22:40;;;;;;;30.65;26.83;;;;;;;-144.27;100.00;69834.63;2081118;28;20694;-76
2021/07/05 04:23:42;;;;;;;33.05;26.83;;;;;;;;;;2080858;28;20243;-76
2021/07/05 04:24:43;;;;;;;34.05;26.65;;;;;;;-144.27;100.00;79944.63;2089243;28;20215;-76
2021/07/05 04:25:45;;;;;;;32.65;26.30;;;;;;;23.05;100.00;55637.59;2089141;28;20766;-76
2021/07/05 04:26:47;;;;;;;31.10;26.05;;;;;;;23.05;100.00;57196.03;2089166;28;20332;-76
2021/07/05 04:27:50;;;;;;;29.55;26.45;;;;;;;23.05;100.00;55637.59;2089848;28;20547;-76
2021/07/05 04:28:50;;;;;;;29.95;26.63;;;;;;;-144.27;80.31;164771.72;2088942;28;20218;-76
2021/07/05 04:29:52;;;;;;;33.87;26.53;;;;;;;189.37;61.97;91336.38;2089192;28;20309;-76
2021/07/05 04:30:53;;;;;;;32.88;26.40;;;;;;;-144.27;100.00;91518.75;2089480;28;20287;-77
2021/07/05 04:31:54;;;;;;;29.83;26.57;;;;;;;22.41;100.00;69759.91;2089853;28;20235;-77
2021/07/05 04:32:56;;;;;;;33.53;28.23;;;;;;;-144.27;100.00;91518.75;2089132;28;20250;-77
2021/07/05 04:33:58;;;;;;;36.38;27.52;;;;;;;-144.27;100.00;91518.75;2089332;28;20696;-77
2021/07/05 04:34:58;;;;;;;31.20;28.00;;;;;;;-144.27;100.00;91518.75;2080680;28;20224;-77
2021/07/05 04:36:00;;;;;;;31.87;27.10;;;;;;;-144.27;100.00;91518.75;2080798;28;20310;-77
2021/07/05 04:37:02;;;;;;;29.85;26.30;;;;;;;-144.27;100.00;91702.66;2089035;28;20222;-76
2021/07/05 04:38:04;;;;;;;34.08;27.65;;;;;;;-144.27;100.00;91702.66;2089748;28;20230;-77
2021/07/05 04:39:06;;;;;;;31.13;26.92;;;;;;;-144.27;100.00;91518.75;2089864;28;20264;-76
2021/07/05 04:40:10;;;;;;;34.83;27.17;;;;;;;-144.27;100.00;91518.75;2082399;28;20231;-77
2021/07/05 04:41:11;;;;;;;30.75;27.48;;;;;;;-144.27;100.00;73679.41;2080680;28;20223;-77
2021/07/05 04:42:14;;;;;;;32.63;27.50;;;;;;;23.05;100.00;58616.53;2081488;28;20233;-76
2021/07/05 04:43:15;;;;;;;29.90;26.73;;;;;;;-144.27;100.00;91702.66;2080131;28;20220;-77
2021/07/05 04:44:17;;;;;;;32.20;28.23;;;;;;;-144.27;100.00;91702.66;2080411;28;20313;-76
2021/07/05 04:45:20;;;;;;;29.25;26.13;;;;;;;-144.27;100.00;91702.66;2072478;28;20227;-77
2021/07/05 04:46:23;;;;;;;36.05;27.48;;;;;;;;;;2072846;28;20761;-77
2021/07/05 04:47:24;;;;;;;31.30;27.70;;;;;;;-144.27;100.00;91702.66;2086952;28;20242;-77